| time (UTC) | temp F | wind direction | speed MPH | gust MPH | rain 1hr in | rain 24hr in | rain mn in | humidity % | barometer mb |
| 20260508100034 | 40 | 304 | 0.0 | 1.0 | 0.00 | 0.18 | 0.00 | 94 | 1016.3 |
| 20260508094527 | 40 | 304 | 0.0 | 0.0 | 0.00 | 0.18 | 0.00 | 94 | 1016.1 |
| 20260508093021 | 40 | 304 | 0.0 | 0.0 | 0.00 | 0.18 | 0.00 | 93 | 1015.9 |
| 20260508091521 | 41 | 304 | 0.0 | 0.0 | 0.00 | 0.18 | 0.00 | 93 | 1015.9 |
| 20260508090030 | 41 | 304 | 0.0 | 0.0 | 0.00 | 0.18 | 0.00 | 94 | 1015.8 |
| 20260508084526 | 41 | 304 | 0.0 | 0.0 | 0.00 | 0.18 | 0.00 | 93 | 1015.7 |
| 20260508083037 | 42 | 303 | 0.0 | 0.0 | 0.00 | 0.18 | 0.00 | 93 | 1015.6 |
| 20260508081520 | 42 | 304 | 0.0 | 0.0 | 0.00 | 0.18 | 0.00 | 93 | 1015.4 |
| 20260508080003 | 42 | 304 | 0.0 | 0.0 | 0.00 | 0.18 | 0.00 | 93 | 1015.3 |
| 20260508074514 | 43 | 304 | 0.0 | 0.0 | 0.00 | 0.18 | 0.00 | 93 | 1015.1 |
| 20260508073013 | 43 | 304 | 0.0 | 0.0 | 0.00 | 0.18 | 0.00 | 92 | 1015.2 |
| 20260508071516 | 44 | 304 | 0.0 | 0.0 | 0.00 | 0.18 | 0.00 | 92 | 1015.0 |
| 20260508070023 | 45 | 304 | 0.0 | 1.0 | 0.00 | 0.18 | 0.00 | 92 | 1015.0 |
| 20260508064516 | 45 | 304 | 0.0 | 1.0 | 0.00 | 0.18 | 0.00 | 92 | 1014.9 |
| 20260508063007 | 44 | 274 | 0.0 | 1.0 | 0.00 | 0.18 | 0.00 | 92 | 1015.0 |
| 20260508061514 | 44 | 274 | 0.0 | 1.0 | 0.00 | 0.18 | 0.00 | 93 | 1015.1 |
| 20260508060019 | 44 | 274 | 0.0 | 1.0 | 0.00 | 0.18 | 0.00 | 93 | 1015.2 |
| 20260508054535 | 44 | 274 | 0.0 | 1.0 | 0.00 | 0.18 | 0.00 | 93 | 1015.2 |
| 20260508053024 | 44 | 274 | 0.0 | 1.0 | 0.00 | 0.18 | 0.00 | 93 | 1015.1 |
| 20260508051522 | 44 | 274 | 0.0 | 0.0 | 0.00 | 0.18 | 0.00 | 93 | 1014.9 |
| 20260508050025 | 45 | 274 | 0.0 | 0.0 | 0.00 | 0.18 | 0.00 | 92 | 1014.9 |
| 20260508044523 | 45 | 274 | 0.0 | 1.0 | 0.00 | 0.19 | 0.00 | 92 | 1014.8 |
| 20260508043036 | 45 | 274 | 0.0 | 1.0 | 0.00 | 0.19 | 0.00 | 92 | 1014.5 |
| 20260508041533 | 45 | 275 | 0.0 | 1.0 | 0.00 | 0.19 | 0.00 | 93 | 1014.3 |
| 20260508040010 | 45 | 274 | 0.0 | 1.0 | 0.00 | 0.19 | 0.00 | 93 | 1014.3 |
| 20260508034523 | 46 | 275 | 0.0 | 0.0 | 0.00 | 0.19 | 0.19 | 92 | 1014.3 |
| 20260508033023 | 46 | 275 | 0.0 | 0.0 | 0.00 | 0.19 | 0.19 | 92 | 1014.3 |
| 20260508031526 | 46 | 274 | 0.0 | 0.0 | 0.00 | 0.19 | 0.19 | 90 | 1014.2 |
| 20260508030031 | 47 | 275 | 0.0 | 1.0 | 0.00 | 0.21 | 0.19 | 90 | 1014.1 |
| 20260508024519 | 47 | 274 | 0.0 | 1.0 | 0.00 | 0.23 | 0.19 | 89 | 1013.9 |
| 20260508023018 | 48 | 274 | 0.0 | 0.0 | 0.00 | 0.24 | 0.19 | 89 | 1013.8 |
| 20260508021521 | 48 | 274 | 0.0 | 0.0 | 0.00 | 0.25 | 0.19 | 89 | 1013.5 |
| 20260508020028 | 49 | 275 | 0.0 | 0.0 | 0.00 | 0.25 | 0.19 | 89 | 1013.4 |
| 20260508014530 | 49 | 274 | 0.0 | 1.0 | 0.00 | 0.26 | 0.19 | 90 | 1013.0 |
| 20260508013015 | 50 | 275 | 0.0 | 0.0 | 0.00 | 0.26 | 0.19 | 87 | 1012.6 |
| 20260508011520 | 51 | 274 | 0.0 | 0.0 | 0.00 | 0.26 | 0.19 | 88 | 1012.3 |
| 20260508010027 | 52 | 274 | 0.0 | 1.0 | 0.00 | 0.26 | 0.19 | 85 | 1012.2 |
| 20260508004536 | 53 | 274 | 0.0 | 0.0 | 0.00 | 0.27 | 0.19 | 82 | 1012.1 |
| 20260508003029 | 56 | 275 | 0.0 | 1.0 | 0.00 | 0.28 | 0.19 | 81 | 1012.3 |
| 20260508001533 | 57 | 274 | 0.0 | 3.0 | 0.00 | 0.29 | 0.19 | 70 | 1012.1 |
| 20260508000020 | 58 | 185 | 0.0 | 5.0 | 0.00 | 0.29 | 0.19 | 68 | 1012.0 |
| 20260507234530 | 59 | 171 | 3.0 | 7.0 | 0.00 | 0.29 | 0.19 | 67 | 1012.0 |
| 20260507233028 | 59 | 337 | 1.0 | 4.0 | 0.00 | 0.29 | 0.19 | 72 | 1011.7 |
| 20260507231534 | 59 | 222 | 1.0 | 6.0 | 0.00 | 0.29 | 0.19 | 74 | 1011.5 |
| 20260507230027 | 59 | 15 | 2.0 | 4.0 | 0.00 | 0.29 | 0.19 | 76 | 1011.1 |
| 20260507224523 | 59 | 281 | 1.0 | 6.0 | 0.00 | 0.29 | 0.19 | 81 | 1011.2 |
| 20260507223025 | 59 | 48 | 0.0 | 1.0 | 0.00 | 0.29 | 0.19 | 89 | 1011.1 |
| 20260507221528 | 59 | 48 | 0.0 | 2.0 | 0.00 | 0.29 | 0.19 | 86 | 1010.8 |
| 20260507220026 | 60 | 329 | 2.0 | 4.0 | 0.00 | 0.29 | 0.19 | 84 | 1010.6 |
| 20260507220014 | 60 | 322 | 2.0 | 4.0 | 0.00 | 0.29 | 0.19 | 84 | 1010.6 |
| 20260507214524 | 62 | 358 | 1.0 | 3.0 | 0.00 | 0.29 | 0.19 | 82 | 1010.2 |
| 20260507213020 | 62 | 359 | 1.0 | 2.0 | 0.00 | 0.29 | 0.19 | 84 | 1010.1 |
| 20260507211504 | 62 | 323 | 1.0 | 3.0 | 0.00 | 0.29 | 0.19 | 84 | 1009.9 |
| 20260507210007 | 61 | 132 | 0.0 | 2.0 | 0.00 | 0.29 | 0.19 | 88 | 1009.8 |
| 20260507204514 | 60 | 110 | 1.0 | 6.0 | 0.00 | 0.29 | 0.19 | 89 | 1009.8 |
| 20260507203020 | 60 | 140 | 3.0 | 7.0 | 0.00 | 0.29 | 0.19 | 90 | 1009.4 |
| 20260507201522 | 58 | 1 | 1.0 | 5.0 | 0.03 | 0.29 | 0.19 | 92 | 1009.6 |
| 20260507200005 | 58 | 53 | 1.0 | 5.0 | 0.13 | 0.29 | 0.19 | 92 | 1009.9 |
| 20260507194510 | 58 | 135 | 0.0 | 3.0 | 0.14 | 0.29 | 0.19 | 92 | 1010.4 |
| 20260507193020 | 58 | 117 | 0.0 | 9.0 | 0.15 | 0.29 | 0.19 | 92 | 1010.5 |
| 20260507191518 | 57 | 23 | 1.0 | 4.0 | 0.12 | 0.26 | 0.16 | 91 | 1010.0 |
| 20260507190024 | 57 | 64 | 1.0 | 8.0 | 0.02 | 0.16 | 0.06 | 90 | 1010.1 |
| 20260507184506 | 58 | 56 | 2.0 | 7.0 | 0.01 | 0.15 | 0.05 | 91 | 1010.4 |
| 20260507183012 | 59 | 43 | 3.0 | 8.0 | 0.00 | 0.14 | 0.04 | 90 | 1010.0 |
| 20260507181517 | 60 | 303 | 1.0 | 5.0 | 0.00 | 0.14 | 0.04 | 89 | 1010.4 |
| 20260507180023 | 60 | 335 | 2.0 | 8.0 | 0.00 | 0.14 | 0.04 | 90 | 1010.0 |
| 20260507174542 | 60 | 63 | 4.0 | 9.0 | 0.00 | 0.14 | 0.04 | 89 | 1010.1 |
| 20260507173011 | 61 | 349 | 1.0 | 8.0 | 0.00 | 0.14 | 0.04 | 89 | 1010.2 |
| 20260507171518 | 61 | 32 | 1.0 | 6.0 | 0.00 | 0.15 | 0.04 | 89 | 1010.1 |
| 20260507170023 | 62 | 50 | 1.0 | 8.0 | 0.00 | 0.15 | 0.04 | 89 | 1010.4 |
| 20260507164525 | 62 | 46 | 1.0 | 6.0 | 0.00 | 0.15 | 0.04 | 88 | 1010.1 |
| 20260507163026 | 64 | 152 | 1.0 | 4.0 | 0.00 | 0.15 | 0.04 | 87 | 1009.8 |
| 20260507161511 | 67 | 44 | 3.0 | 7.0 | 0.00 | 0.15 | 0.04 | 85 | 1009.6 |
| 20260507160015 | 69 | 299 | 0.0 | 1.0 | 0.00 | 0.15 | 0.04 | 85 | 1009.8 |
| 20260507154520 | 69 | 300 | 0.0 | 1.0 | 0.00 | 0.15 | 0.04 | 85 | 1010.1 |
| 20260507153027 | 68 | 139 | 2.0 | 5.0 | 0.00 | 0.15 | 0.04 | 88 | 1010.0 |
| 20260507151527 | 66 | 4 | 2.0 | 5.0 | 0.00 | 0.15 | 0.04 | 88 | 1010.1 |
| 20260507150012 | 64 | 6 | 0.0 | 1.0 | 0.00 | 0.15 | 0.04 | 90 | 1010.3 |
| 20260507144516 | 64 | 189 | 0.0 | 1.0 | 0.00 | 0.15 | 0.04 | 91 | 1010.5 |
| 20260507143020 | 65 | 167 | 0.0 | 0.0 | 0.00 | 0.15 | 0.04 | 91 | 1010.4 |
| 20260507141524 | 64 | 167 | 0.0 | 1.0 | 0.00 | 0.15 | 0.04 | 92 | 1010.2 |
| 20260507140036 | 64 | 150 | 0.0 | 0.0 | 0.00 | 0.15 | 0.04 | 93 | 1010.1 |
| 20260507134529 | 63 | 150 | 0.0 | 1.0 | 0.00 | 0.15 | 0.04 | 94 | 1009.8 |
| 20260507133017 | 63 | 324 | 0.0 | 2.0 | 0.01 | 0.15 | 0.04 | 94 | 1009.9 |
| 20260507131536 | 62 | 30 | 0.0 | 1.0 | 0.01 | 0.15 | 0.04 | 94 | 1010.1 |
| 20260507130027 | 62 | 31 | 0.0 | 1.0 | 0.01 | 0.15 | 0.04 | 95 | 1010.7 |
| 20260507124509 | 62 | 84 | 0.0 | 2.0 | 0.02 | 0.15 | 0.04 | 95 | 1010.9 |
| 20260507123015 | 62 | 285 | 0.0 | 1.0 | 0.01 | 0.14 | 0.03 | 95 | 1011.1 |
| 20260507121521 | 61 | 285 | 0.0 | 1.0 | 0.01 | 0.14 | 0.03 | 95 | 1011.3 |
| 20260507120003 | 61 | 60 | 0.0 | 1.0 | 0.01 | 0.14 | 0.03 | 95 | 1011.3 |
| 20260507114506 | 61 | 60 | 0.0 | 1.0 | 0.01 | 0.13 | 0.02 | 95 | 1010.7 |
| 20260507113021 | 61 | 60 | 0.0 | 0.0 | 0.01 | 0.13 | 0.02 | 95 | 1010.8 |
| 20260507111515 | 61 | 60 | 0.0 | 1.0 | 0.01 | 0.13 | 0.02 | 95 | 1010.7 |
| 20260507110020 | 61 | 60 | 0.0 | 1.0 | 0.01 | 0.13 | 0.02 | 95 | 1010.3 |
| 20260507104505 | 61 | 60 | 0.0 | 0.0 | 0.00 | 0.12 | 0.01 | 95 | 1010.4 |
| 20260507103008 | 61 | 60 | 0.0 | 0.0 | 0.00 | 0.12 | 0.01 | 94 | 1010.4 |
| 20260507101516 | 61 | 60 | 0.0 | 1.0 | 0.00 | 0.12 | 0.01 | 95 | 1010.2 |